Nicolas Caicedo

Scout - Cortulua
3 Dez 2028
Sonntag
Verarbeitung

Persönlichkeit

Anpassungsfähigkeit (15) Ehrgeiz (3) Kontroverse (6) Loyalität (19) Druck (19) Professionalität (6) Fairness (13) Temperament (10)

Profil

Trainerstil Demokratisch
Lizenz Nationale A
Entschlossenheit 6
Menschenführung 8
Motivation 3
Disziplin 10
Arbeitszufriedenheit
100%
Ermüdung
0%
Rolle Scout
Gehalt 46.3K p/W
Vertrag 14.03.2030

Leistung

Verhalten Gut
Trainingseffektivität
33%
Spielerentwicklung
55%
Verletzungsprävention
20%
Taktische Umsetzung
25%

Letzte Ereignisse

Spieler begutachtet jetzt
Nahm an einer Scouting-Besprechung teil jetzt
Spieler begutachtet jetzt
Nahm an einer Scouting-Besprechung teil 7T her
Spieler begutachtet 7T her
Spieler begutachtet 7T her
Spieler begutachtet 7T her
Spieler begutachtet 14T her

Aktuell beobachtet

159
Spieler Verein Status Fähigkeit Vertrauen Beobachtet Zuletzt beobachtet Letzte Stimme
Luciano Posadas Central Córdoba SdE Aktiv 103 / 97 40% 2 01.12.2028 -
Yeifer Herrera Leones Aktiv 92 / 104 58% 1 01.12.2028 -
José Neto Benfica Aktiv 130 / 133 40% 1 01.12.2028 -
Juan Sebastián Herrera Deportivo La Guaira Aktiv 123 / 115 40% 1 30.11.2028 -
Santiago Moyano Central Córdoba SdE Aktiv 111 / 123 40% 1 30.11.2028 -
Jáder Quiñónes Once Caldas Aktiv 130 / 116 40% 1 28.11.2028 -
Jaminton Campaz Rosario Central Aktiv 133 / 131 40% 1 28.11.2028 -
Emiliano Saliadarre Miramar Misiones Aktiv 114 / 113 40% 1 27.11.2028 -
Elías Cabrera Vélez Aktiv 125 / 126 40% 1 27.11.2028 -
Luciano Cosentino Wanderers Aktiv 130 / 122 40% 2 25.11.2028 -
Martín Campos Ferro Carril Oeste Aktiv 115 / 121 40% 1 25.11.2028 -
Yuber Quiñónes Patriotas Aktiv 129 / 114 40% 1 22.11.2028 -
Gonzalo Gómez Juventud Aktiv 107 / 114 40% 1 22.11.2028 -
Alan Velasco Fortaleza Aktiv 138 / 137 40% 2 21.11.2028 -
Oscar Garrido Mitre Aktiv 108 / 114 40% 1 21.11.2028 -
Tomás Pozzo Godoy Cruz Aktiv 135 / 127 40% 1 18.11.2028 -
Manuel Duarte Barracas Central Aktiv 125 / 118 40% 1 18.11.2028 -
Rodrigo Cabral Huracán Aktiv 126 / 121 40% 1 14.11.2028 -
Alex Luna Instituto Aktiv 143 / 129 40% 1 14.11.2028 -
Giovanni Leoni Lincoln City Aktiv 145 / 144 40% 1 13.11.2028 -
Christos Mouzakitis Hull City Aktiv 137 / 141 40% 1 13.11.2028 -
Juan Velázquez Belgrano Aktiv 129 / 124 40% 1 13.11.2028 -
Lautaro Giaccone Argentinos Juniors Aktiv 129 / 129 40% 1 13.11.2028 -
Tyler Fletcher Rotherham United Aktiv 103 / 122 40% 2 10.11.2028 -
Nicolás Retamar Ferro Carril Oeste Aktiv 126 / 114 40% 1 10.11.2028 -
Bruno Leyes Godoy Cruz Aktiv 128 / 123 40% 1 10.11.2028 -
Mauro Matorras Central Norte Aktiv 95 / 103 40% 1 10.11.2028 -
Agustín Ojeda Seattle Sounders Aktiv 119 / 129 40% 1 07.11.2028 -
Santiago Montiel Independiente Aktiv 122 / 131 40% 1 07.11.2028 -
Felipe Varela Trujillanos Aktiv 86 / 103 40% 2 06.11.2028 -
Ayyoub Bouaddi Stoke City Aktiv 166 / 152 40% 1 06.11.2028 -
Juan Bisanz Huracán Aktiv 122 / 129 40% 1 28.10.2028 -
Daniel Barrea Godoy Cruz Aktiv 123 / 117 40% 1 28.10.2028 -
Jaen Pineda Real Cartagena Aktiv 131 / 118 40% 1 27.10.2028 -
Néider Ospina Llaneros Aktiv 117 / 114 40% 1 27.10.2028 -
Patricio Moyano Defensores Aktiv 113 / 114 40% 1 26.10.2028 -
Nahuel Curcio Colón Aktiv 122 / 110 40% 1 26.10.2028 -
Alan Lescano Argentinos Juniors Aktiv 141 / 134 40% 1 23.10.2028 -
Cheikh Sabaly Vancouver Whitecaps Aktiv 129 / 127 40% 1 23.10.2028 -
Tomás Escalante River Plate Aktiv 131 / 119 40% 1 22.10.2028 -
Matías Reali San Lorenzo Aktiv 124 / 122 40% 1 22.10.2028 -
Sebastian Rodriguez Houston Dynamo Aktiv 123 / 133 40% 3 18.10.2028 -
Santiago Espíndola River Plate Aktiv 107 / 119 40% 1 18.10.2028 -
Estanislao López Colón Aktiv 92 / 92 40% 2 17.10.2028 -
Emiliano Bértoli Patronato Aktiv 101 / 94 40% 1 17.10.2028 -
Bongokuhle Hlongwane LA Galaxy Aktiv 130 / 123 40% 1 13.10.2028 -
Esteban Obregón Montevideo City Torque Aktiv 112 / 119 40% 2 11.10.2028 -
Alejo Cruz Juventud Aktiv 118 / 127 40% 2 11.10.2028 -
Jonás Luna Wanderers Aktiv 131 / 121 40% 2 10.10.2028 -
Antony Alonso Deportivo Riestra Aktiv 120 / 116 40% 1 10.10.2028 -
Agustín Rodríguez Juventud Aktiv 135 / 120 40% 1 04.10.2028 -
Ignacio Maestro Puch Independiente Aktiv 130 / 133 40% 1 04.10.2028 -
Aytor Herrera Mineros de Guayana Aktiv 94 / 89 40% 2 03.10.2028 -
Aaron Branca Artigas Aktiv 80 / 88 40% 1 03.10.2028 -
Yury Oyarzo Racing Aktiv 101 / 100 40% 1 02.10.2028 -
Lucas Camejo River Plate Aktiv 92 / 96 40% 1 02.10.2028 -
Agustín Medina Lanús Aktiv 116 / 123 40% 2 05.09.2028 -
Joel Ezra Enyimba Aktiv 87 / 96 40% 2 30.08.2028 -
Ivan Borges Defensores Aktiv 87 / 91 40% 1 30.08.2028 -
Joelson Gamarra General Caballero Aktiv 78 / 77 40% 2 27.08.2028 -
Juan Camilo Córdoba Deportivo Pereira Aktiv 101 / 94 40% 1 26.08.2028 -
Bautista Mamousse Chacarita Juniors Aktiv 88 / 93 40% 1 25.08.2028 -
Mohammed Habib Sarwari Kariobangi Sharks Aktiv 61 / 74 40% 1 25.08.2028 -
Tiago Gordillo San Miguel Aktiv 96 / 92 40% 2 22.08.2028 -
Mateo Caballero Defensor Sporting Aktiv 111 / 109 40% 1 22.08.2028 -
Santiago Noguera Central Córdoba SdE Aktiv 89 / 102 40% 1 19.08.2028 -
Matías Magdaleno Estudiantes Aktiv 118 / 116 40% 1 19.08.2028 -
Thijs Kraaijeveld USM Alger Aktiv 115 / 126 40% 1 18.08.2028 -
Mateo Faure BATE Aktiv 105 / 87 40% 1 18.08.2028 -
Óscar Hinojosa Metropolitanos Aktiv 78 / 83 40% 1 15.08.2028 -
Simone Suppa Virtus Verona Aktiv 93 / 88 40% 1 14.08.2028 -
Kamaldeen Atiemo Wa All Stars Aktiv 119 / 109 40% 1 13.08.2028 -
Abubakar Adams Aduana Stars Aktiv 86 / 89 40% 1 12.08.2028 -
Martim Cunha Porto Aktiv 126 / 114 40% 1 07.08.2028 -
Cheveyo Tsawa Club Brugge Aktiv 121 / 127 40% 1 10.07.2028 -
Ben Nelson Leicester City Aktiv 156 / 149 40% 1 12.06.2028 -
Jayson Molumby West Bromwich Albion Aktiv 143 / 127 40% 1 12.06.2028 -
Finn Azaz Southampton Aktiv 137 / 141 40% 1 30.05.2028 -
Tyrese Campbell Sheffield United Aktiv 138 / 137 40% 3 29.05.2028 -
Jaidon Anthony Derby County Aktiv 143 / 136 40% 2 23.05.2028 -
Antoni Milambo Brentford Aktiv 154 / 154 40% 2 23.05.2028 -
Callum O'Hare Sheffield United Aktiv 147 / 140 40% 1 18.05.2028 -
Marcus Tavernier Bournemouth Aktiv 145 / 145 40% 1 17.05.2028 -
Jayden Bogle Leeds United Aktiv 153 / 146 40% 1 17.05.2028 -
Lamare Bogarde Reading Aktiv 130 / 140 40% 2 15.05.2028 -
Ben Gannon Doak Charlton Athletic Aktiv 142 / 149 40% 3 15.05.2028 -
Ra'ees Bangura-Williams Millwall Aktiv 111 / 117 40% 1 14.05.2028 -
Samuel Edozie Southampton Aktiv 138 / 136 40% 1 11.05.2028 -
Stanley Mills Crewe Alexandra Aktiv 143 / 133 40% 2 07.05.2028 -
Camilo Ibarra Tigres Aktiv 103 / 103 42% 1 / 1m 03.05.2028 -
Orles Aragón Tigres Aktiv 103 / 103 42% 1 / 1m 03.05.2028 -
Callum Brittain Middlesbrough Aktiv 146 / 125 40% 1 30.04.2028 -
Harry Wilson Leeds United Aktiv 137 / 146 40% 1 29.04.2028 -
Malick Fofana Sunderland Aktiv 153 / 154 40% 1 25.04.2028 -
Santiago Pierotti Lecce Aktiv 140 / 137 40% 1 24.04.2028 -
Riley McGree Middlesbrough Aktiv 126 / 127 40% 1 24.04.2028 -
Carlos Alcaraz Stoke City Aktiv 165 / 158 40% 1 23.04.2028 -
Tyreece Campbell Charlton Athletic Aktiv 125 / 127 40% 1 22.04.2028 -
Mohamed-Ali Cho Hull City Aktiv 159 / 146 40% 1 21.04.2028 -
Ilias Chair Queens Park Rangers Aktiv 127 / 138 40% 1 21.04.2028 -
Kwadwo Baah Watford Aktiv 136 / 129 40% 1 20.04.2028 -
Archie Gray Southampton Aktiv 137 / 159 40% 1 16.04.2028 -
Malik Mothersille Stockport County Aktiv 134 / 125 40% 1 15.04.2028 -
Jaden Philogene Wolverhampton Aktiv 157 / 148 40% 1 14.04.2028 -
Erick Pulga Bahia Aktiv 138 / 139 40% 1 14.04.2028 -
Georginio Rutter Brighton Aktiv 142 / 160 40% 1 12.04.2028 -
Andrés Gómez Vasco da Gama Aktiv 150 / 141 40% 2 11.04.2028 -
Vitaly Janelt Derby County Aktiv 136 / 153 40% 1 11.04.2028 -
Quilindschy Hartman Burnley Aktiv 145 / 142 40% 2 03.04.2028 -
Abdoul Ouattara Port Vale Aktiv 141 / 129 40% 1 03.04.2028 -
Vasil Kušej Slavia Prague Aktiv 150 / 142 40% 1 23.03.2028 -
Fábio Carvalho Brentford Aktiv 158 / 140 40% 1 21.03.2028 -
Zito Luvumbo Cagliari Aktiv 126 / 128 40% 2 19.03.2028 -
Aaron Hickey Brentford Aktiv 136 / 152 40% 1 19.03.2028 -
Nuno Moreira Vasco da Gama Aktiv 141 / 127 40% 1 18.03.2028 -
Danilo Botafogo Aktiv 143 / 144 40% 1 09.03.2028 -
Domagoj Drožđek Tractor Aktiv 132 / 136 40% 1 08.03.2028 -
Mfundo Vilakazi Free State Stars Aktiv 133 / 122 40% 1 07.03.2028 -
Miguel Palacios Universitario Popayan Aktiv 122 / 125 30% 1 / 1m 23.02.2028 -
Lautaro Gordillo Colegiales Aktiv 121 / 108 40% 2 28.11.2027 -
Tadeo Allende Inter Miami CF Aktiv 141 / 121 40% 2 28.11.2027 -
Wessam Abou Ali Columbus Crew Aktiv 123 / 131 40% 1 27.11.2027 -
Juan Rocca Gimnasia y Tiro Aktiv 115 / 114 40% 1 26.11.2027 -
Talles Magno New York City Aktiv 150 / 138 40% 2 23.11.2027 -
Kévin Denkey FC Cincinnati Aktiv 143 / 137 40% 1 23.11.2027 -
Matías Arezo Penarol Aktiv 129 / 125 40% 1 22.11.2027 -
Ignacio Russo Tigre Aktiv 128 / 124 40% 2 20.11.2027 -
Juan Cruz de los Santos Nacional Aktiv 118 / 126 40% 2 15.11.2027 -
Jalal Abdullai Molde Aktiv 120 / 126 40% 1 15.11.2027 -
Francisco Galván Deportivo Municipal Aktiv 110 / 107 40% 1 13.11.2027 -
Francisco Bonfiglio Boston River Aktiv 115 / 115 40% 1 13.11.2027 -
Agustín Gallo Tristán Suárez Aktiv 125 / 106 40% 1 10.11.2027 -
Augusto Berrondo Tristán Suárez Aktiv 100 / 106 40% 1 10.11.2027 -
Yoshan Valois Lanús Aktiv 114 / 117 40% 1 08.11.2027 -
Petar Musa FC Dallas Aktiv 127 / 136 40% 1 08.11.2027 -
Jefry Zapata Aldosivi Aktiv 129 / 121 40% 1 06.11.2027 -
Germán Berterame Inter Miami CF Aktiv 134 / 132 40% 1 06.11.2027 -
Daniel Karlsbakk Sarpsborg 08 Aktiv 137 / 118 40% 1 05.11.2027 -
Patrick Preciado Deportivo Pasto Aktiv 98 / 106 40% 1 02.11.2027 -
Esteban da Silva Racing Aktiv 104 / 115 40% 1 01.11.2027 -
Renzo Reynaga Patronato Aktiv 113 / 111 40% 1 26.10.2027 -
Cristian Barros Cerro Aktiv 120 / 110 40% 1 22.10.2027 -
Brayan Moreno Santa Fe Aktiv 121 / 109 40% 1 21.10.2027 -
Tomás Fernández Aldosivi Aktiv 127 / 112 40% 1 19.10.2027 -
Ivo Costantino River Plate Aktiv 112 / 114 40% 1 19.10.2027 -
Juan David Rueda Alianza Petrolera Aktiv 117 / 110 40% 1 15.10.2027 -
Marcelo Torres Gimnasia La Plata Aktiv 113 / 113 40% 1 14.10.2027 -
Sebastián Cocimano Nueva Chicago Aktiv 101 / 117 40% 2 11.10.2027 -
Luca Langoni Columbus Crew Aktiv 135 / 136 40% 1 11.10.2027 -
Leonardo Campana New England Revolution Aktiv 137 / 137 40% 1 08.10.2027 -
Facundo Krüger Temperley Aktiv 112 / 118 40% 1 07.10.2027 -
Rafael Moreno Atletico Venezuela Aktiv 107 / 114 40% 1 07.10.2027 -
César Magallan Estudiantes de Merida Aktiv 103 / 104 40% 1 06.10.2027 -
Yegor Kortsov Dinamo Brest Aktiv 127 / 100 40% 1 06.10.2027 -
Williams Barlasina Fortaleza CEIF Aktiv 122 / 122 44% 2 / 2m 29.09.2027 -
Joan Cajares Fortaleza CEIF Aktiv 111 / 114 30% 1 / 1m 21.07.2027 -
Maxence Prévot OH Leuven Aktiv 121 / 127 40% 1 28.12.2026 -
Nahuel Losada Lanús Aktiv 123 / 121 40% 1 28.12.2026 -
Luis Moreno Veracruz Aktiv 132 / 127 40% 1 17.10.2026 -